Terminal Aerodrome Forecast
Issued by NWS Twin Cities, MN

Home | Current Version | Previous Version | Graphics & Text | Print | Product List | Glossary On
Versions: 1 2 3 4 5 6 7 8 9 10 11 12 13 14
000
FTUS43 KMPX 031729
TAFEAU
TAF
KEAU 031729Z 0318/0418 20008KT P6SM SCT090
     FM032200 25008KT P6SM VCTS BKN040CB
      TEMPO 0323/0401 3SM TSRA BR BKN020CB
     FM040100 36007KT P6SM VCTS BKN045CB
     FM040300 36005KT P6SM VCSH BKN090
     FM040800 35007KT P6SM SKC
     FM041300 02010KT P6SM BKN250=

USA.gov is the U.S. government's official web portal to all federal, state and local government web resources and services.